sensor_id;sensor_type;location;lat;lon;timestamp;pressure;altitude;pressure_sealevel;temperature;humidity
23363;BME280;11853;48.080;11.960;2023-12-07T00:01:53;94945.09;;;4.95;96.73
23363;BME280;11853;48.080;11.960;2023-12-07T00:04:19;94948.56;;;4.96;96.68
23363;BME280;11853;48.080;11.960;2023-12-07T00:06:45;94943.31;;;4.96;96.05
23363;BME280;11853;48.080;11.960;2023-12-07T00:09:10;94942.72;;;4.92;96.87
23363;BME280;11853;48.080;11.960;2023-12-07T00:11:36;94946.19;;;4.93;96.77
23363;BME280;11853;48.080;11.960;2023-12-07T00:14:02;94956.69;;;4.93;96.35
23363;BME280;11853;48.080;11.960;2023-12-07T00:16:28;94967.31;;;4.91;96.98
23363;BME280;11853;48.080;11.960;2023-12-07T00:18:54;94960.47;;;4.89;96.78
23363;BME280;11853;48.080;11.960;2023-12-07T00:21:19;94959.56;;;4.90;96.77
23363;BME280;11853;48.080;11.960;2023-12-07T00:23:45;94959.56;;;4.90;96.77
23363;BME280;11853;48.080;11.960;2023-12-07T00:26:11;94958.81;;;4.88;96.54
23363;BME280;11853;48.080;11.960;2023-12-07T00:28:37;94958.09;;;4.86;96.33
23363;BME280;11853;48.080;11.960;2023-12-07T00:31:03;94962.28;;;4.88;96.40
23363;BME280;11853;48.080;11.960;2023-12-07T00:33:28;94968.38;;;4.89;96.15
23363;BME280;11853;48.080;11.960;2023-12-07T00:35:54;94960.63;;;4.87;96.33
23363;BME280;11853;48.080;11.960;2023-12-07T00:38:20;94961.56;;;4.86;96.41
23363;BME280;11853;48.080;11.960;2023-12-07T00:40:46;94959.78;;;4.87;96.32
23363;BME280;11853;48.080;11.960;2023-12-07T00:43:12;94959.78;;;4.87;96.03
23363;BME280;11853;48.080;11.960;2023-12-07T00:45:38;94968.59;;;4.86;96.29
23363;BME280;11853;48.080;11.960;2023-12-07T00:48:04;94972.19;;;4.85;95.74
23363;BME280;11853;48.080;11.960;2023-12-07T00:50:30;94961.91;;;4.82;96.05
23363;BME280;11853;48.080;11.960;2023-12-07T00:52:56;94963.81;;;4.80;96.33
23363;BME280;11853;48.080;11.960;2023-12-07T00:55:22;94975.28;;;4.79;95.86
23363;BME280;11853;48.080;11.960;2023-12-07T00:57:48;94961.66;;;4.73;96.52
23363;BME280;11853;48.080;11.960;2023-12-07T01:00:14;94965.34;;;4.71;96.36
23363;BME280;11853;48.080;11.960;2023-12-07T01:02:40;94962.09;;;4.67;95.67
23363;BME280;11853;48.080;11.960;2023-12-07T01:05:06;94970.81;;;4.68;95.94
23363;BME280;11853;48.080;11.960;2023-12-07T01:07:32;94971.06;;;4.65;96.00
23363;BME280;11853;48.080;11.960;2023-12-07T01:09:57;94968.44;;;4.65;96.39
23363;BME280;11853;48.080;11.960;2023-12-07T01:12:23;94978.19;;;4.63;95.61
23363;BME280;11853;48.080;11.960;2023-12-07T01:14:49;94983.59;;;4.61;96.32
23363;BME280;11853;48.080;11.960;2023-12-07T01:17:15;94988.84;;;4.61;95.81
23363;BME280;11853;48.080;11.960;2023-12-07T01:19:41;94992.53;;;4.59;96.26
23363;BME280;11853;48.080;11.960;2023-12-07T01:22:06;94995.03;;;4.60;95.51
23363;BME280;11853;48.080;11.960;2023-12-07T01:24:32;94993.34;;;4.59;96.25
23363;BME280;11853;48.080;11.960;2023-12-07T01:26:58;94998.63;;;4.59;95.63
23363;BME280;11853;48.080;11.960;2023-12-07T01:29:24;94994.41;;;4.57;96.15
23363;BME280;11853;48.080;11.960;2023-12-07T01:31:49;94997.19;;;4.55;96.07
23363;BME280;11853;48.080;11.960;2023-12-07T01:34:17;94995.47;;;4.54;95.12
23363;BME280;11853;48.080;11.960;2023-12-07T01:36:43;94998.22;;;4.53;95.62
23363;BME280;11853;48.080;11.960;2023-12-07T01:39:09;94999.28;;;4.50;95.65
23363;BME280;11853;48.080;11.960;2023-12-07T01:41:38;95003.72;;;4.49;96.19
23363;BME280;11853;48.080;11.960;2023-12-07T01:44:04;95009.06;;;4.48;95.70
23363;BME280;11853;48.080;11.960;2023-12-07T01:46:30;95008.34;;;4.46;95.82
23363;BME280;11853;48.080;11.960;2023-12-07T01:48:56;95009.28;;;4.45;96.54
23363;BME280;11853;48.080;11.960;2023-12-07T01:51:22;95012.00;;;4.43;96.70
23363;BME280;11853;48.080;11.960;2023-12-07T01:53:49;95020.03;;;4.42;96.16
23363;BME280;11853;48.080;11.960;2023-12-07T01:56:15;95015.72;;;4.41;95.93
23363;BME280;11853;48.080;11.960;2023-12-07T01:58:44;95024.53;;;4.40;96.21
23363;BME280;11853;48.080;11.960;2023-12-07T02:01:10;95024.03;;;4.35;95.61
23363;BME280;11853;48.080;11.960;2023-12-07T02:03:40;95023.19;;;4.34;96.19
23363;BME280;11853;48.080;11.960;2023-12-07T02:06:06;95026.78;;;4.33;95.59
23363;BME280;11853;48.080;11.960;2023-12-07T02:08:34;95035.72;;;4.31;96.35
23363;BME280;11853;48.080;11.960;2023-12-07T02:11:00;95023.75;;;4.26;96.54
23363;BME280;11853;48.080;11.960;2023-12-07T02:13:26;95037.72;;;4.27;96.50
23363;BME280;11853;48.080;11.960;2023-12-07T02:15:54;95036.38;;;4.21;96.88
23363;BME280;11853;48.080;11.960;2023-12-07T02:18:39;95040.78;;;4.21;95.81
23363;BME280;11853;48.080;11.960;2023-12-07T02:21:25;95042.69;;;4.19;97.07
23363;BME280;11853;48.080;11.960;2023-12-07T02:23:52;95039.22;;;4.18;97.23
23363;BME280;11853;48.080;11.960;2023-12-07T02:26:20;95040.16;;;4.17;96.99
23363;BME280;11853;48.080;11.960;2023-12-07T02:28:47;95043.81;;;4.15;96.68
23363;BME280;11853;48.080;11.960;2023-12-07T02:31:13;95047.31;;;4.15;96.91
23363;BME280;11853;48.080;11.960;2023-12-07T02:33:39;95043.97;;;4.13;96.66
23363;BME280;11853;48.080;11.960;2023-12-07T02:36:05;95047.53;;;4.12;97.59
23363;BME280;11853;48.080;11.960;2023-12-07T02:38:31;95056.97;;;4.15;96.93
23363;BME280;11853;48.080;11.960;2023-12-07T02:40:59;95049.22;;;4.13;97.63
23363;BME280;11853;48.080;11.960;2023-12-07T02:43:26;95050.03;;;4.14;97.04
23363;BME280;11853;48.080;11.960;2023-12-07T02:45:52;95053.50;;;4.14;96.78
23363;BME280;11853;48.080;11.960;2023-12-07T02:48:20;95055.41;;;4.12;97.59
23363;BME280;11853;48.080;11.960;2023-12-07T02:50:46;95054.69;;;4.10;96.99
23363;BME280;11853;48.080;11.960;2023-12-07T02:53:12;95054.69;;;4.10;97.05
23363;BME280;11853;48.080;11.960;2023-12-07T02:55:38;95066.00;;;4.11;96.76
23363;BME280;11853;48.080;11.960;2023-12-07T02:58:04;95056.56;;;4.08;97.67
23363;BME280;11853;48.080;11.960;2023-12-07T03:00:30;95055.13;;;4.04;97.07
23363;BME280;11853;48.080;11.960;2023-12-07T03:02:56;95053.41;;;4.03;96.40
23363;BME280;11853;48.080;11.960;2023-12-07T03:05:21;95051.84;;;4.00;96.67
23363;BME280;11853;48.080;11.960;2023-12-07T03:07:48;95053.75;;;3.98;97.19
23363;BME280;11853;48.080;11.960;2023-12-07T03:10:14;95059.31;;;3.94;97.29
23363;BME280;11853;48.080;11.960;2023-12-07T03:12:40;95061.84;;;3.95;97.56
23363;BME280;11853;48.080;11.960;2023-12-07T03:15:06;95064.56;;;3.94;97.33
23363;BME280;11853;48.080;11.960;2023-12-07T03:17:32;95059.31;;;3.94;96.83
23363;BME280;11853;48.080;11.960;2023-12-07T03:19:57;95063.81;;;3.92;96.52
23363;BME280;11853;48.080;11.960;2023-12-07T03:22:23;95062.16;;;3.91;96.48
23363;BME280;11853;48.080;11.960;2023-12-07T03:24:51;95067.63;;;3.88;96.49
23363;BME280;11853;48.080;11.960;2023-12-07T03:27:17;95064.25;;;3.86;96.87
23363;BME280;11853;48.080;11.960;2023-12-07T03:29:43;95071.19;;;3.87;96.75
23363;BME280;11853;48.080;11.960;2023-12-07T03:32:09;95066.25;;;3.82;97.05
23363;BME280;11853;48.080;11.960;2023-12-07T03:34:35;95075.09;;;3.81;96.43
23363;BME280;11853;48.080;11.960;2023-12-07T03:37:00;95074.22;;;3.80;96.90
23363;BME280;11853;48.080;11.960;2023-12-07T03:39:26;95084.72;;;3.80;96.18
23363;BME280;11853;48.080;11.960;2023-12-07T03:41:52;95069.09;;;3.79;96.71
23363;BME280;11853;48.080;11.960;2023-12-07T03:44:18;95084.63;;;3.82;96.84
23363;BME280;11853;48.080;11.960;2023-12-07T03:46:44;95084.72;;;3.80;96.04
23363;BME280;11853;48.080;11.960;2023-12-07T03:49:10;95082.09;;;3.80;96.70
23363;BME280;11853;48.080;11.960;2023-12-07T03:51:35;95089.13;;;3.80;96.61
23363;BME280;11853;48.080;11.960;2023-12-07T03:54:03;95088.31;;;3.79;95.66
23363;BME280;11853;48.080;11.960;2023-12-07T03:56:30;95096.16;;;3.79;95.34
23363;BME280;11853;48.080;11.960;2023-12-07T03:58:56;95094.50;;;3.78;95.16
23363;BME280;11853;48.080;11.960;2023-12-07T04:01:23;95104.25;;;3.76;96.02
23363;BME280;11853;48.080;11.960;2023-12-07T04:03:49;95102.59;;;3.75;96.38
23363;BME280;11853;48.080;11.960;2023-12-07T04:06:15;95098.25;;;3.74;95.98
23363;BME280;11853;48.080;11.960;2023-12-07T04:08:42;95099.22;;;3.73;96.09
23363;BME280;11853;48.080;11.960;2023-12-07T04:11:08;95102.59;;;3.75;95.84
23363;BME280;11853;48.080;11.960;2023-12-07T04:13:34;95108.44;;;3.79;95.74
23363;BME280;11853;48.080;11.960;2023-12-07T04:15:59;95100.69;;;3.77;96.20
23363;BME280;11853;48.080;11.960;2023-12-07T04:18:25;95106.66;;;3.79;95.66
23363;BME280;11853;48.080;11.960;2023-12-07T04:20:51;95117.91;;;3.81;95.70
23363;BME280;11853;48.080;11.960;2023-12-07T04:23:16;95117.69;;;3.84;95.36
23363;BME280;11853;48.080;11.960;2023-12-07T04:25:42;95113.28;;;3.85;95.54
23363;BME280;11853;48.080;11.960;2023-12-07T04:28:08;95112.44;;;3.84;95.13
23363;BME280;11853;48.080;11.960;2023-12-07T04:30:34;95113.28;;;3.85;95.47
23363;BME280;11853;48.080;11.960;2023-12-07T04:33:00;95114.09;;;3.86;95.18
23363;BME280;11853;48.080;11.960;2023-12-07T04:35:27;95124.41;;;3.89;95.89
23363;BME280;11853;48.080;11.960;2023-12-07T04:37:54;95118.31;;;3.88;95.69
23363;BME280;11853;48.080;11.960;2023-12-07T04:40:20;95121.78;;;3.89;95.06
23363;BME280;11853;48.080;11.960;2023-12-07T04:42:45;95122.59;;;3.89;95.21
23363;BME280;11853;48.080;11.960;2023-12-07T04:48:29;95122.59;;;3.89;94.75
23363;BME280;11853;48.080;11.960;2023-12-07T04:50:54;95128.59;;;3.91;95.28
23363;BME280;11853;48.080;11.960;2023-12-07T04:53:20;95125.97;;;3.91;94.84
23363;BME280;11853;48.080;11.960;2023-12-07T04:55:46;95126.81;;;3.92;94.10
23363;BME280;11853;48.080;11.960;2023-12-07T04:58:15;95131.34;;;3.90;94.63
23363;BME280;11853;48.080;11.960;2023-12-07T05:00:41;95132.06;;;3.92;94.17
23363;BME280;11853;48.080;11.960;2023-12-07T05:03:07;95136.59;;;3.90;94.76
23363;BME280;11853;48.080;11.960;2023-12-07T05:05:32;95136.47;;;3.91;95.13
23363;BME280;11853;48.080;11.960;2023-12-07T05:07:58;95139.09;;;3.91;94.91
23363;BME280;11853;48.080;11.960;2023-12-07T05:10:24;95142.34;;;3.95;94.52
23363;BME280;11853;48.080;11.960;2023-12-07T05:12:49;95138.03;;;3.94;93.88
23363;BME280;11853;48.080;11.960;2023-12-07T05:15:15;95137.09;;;3.95;94.91
23363;BME280;11853;48.080;11.960;2023-12-07T05:17:44;95134.47;;;3.95;93.98
23363;BME280;11853;48.080;11.960;2023-12-07T05:20:10;95127.53;;;3.94;94.40
23363;BME280;11853;48.080;11.960;2023-12-07T05:22:44;95131.84;;;3.95;94.96
23363;BME280;11853;48.080;11.960;2023-12-07T05:25:09;95124.19;;;3.92;94.53
23363;BME280;11853;48.080;11.960;2023-12-07T05:27:35;95126.59;;;3.95;93.82
23363;BME280;11853;48.080;11.960;2023-12-07T05:30:01;95130.91;;;3.96;93.90
23363;BME280;11853;48.080;11.960;2023-12-07T05:32:27;95135.41;;;3.94;94.41
23363;BME280;11853;48.080;11.960;2023-12-07T05:34:53;95133.00;;;3.91;93.30
23363;BME280;11853;48.080;11.960;2023-12-07T05:37:18;95131.34;;;3.90;93.34
23363;BME280;11853;48.080;11.960;2023-12-07T05:39:44;95136.47;;;3.91;93.50
23363;BME280;11853;48.080;11.960;2023-12-07T05:42:10;95127.47;;;3.95;93.57
23363;BME280;11853;48.080;11.960;2023-12-07T05:44:36;95133.53;;;3.96;93.29
23363;BME280;11853;48.080;11.960;2023-12-07T05:47:02;95124.84;;;3.95;93.32
23363;BME280;11853;48.080;11.960;2023-12-07T05:49:27;95121.25;;;3.96;92.96
23363;BME280;11853;48.080;11.960;2023-12-07T05:51:53;95126.59;;;3.95;92.87
23363;BME280;11853;48.080;11.960;2023-12-07T05:54:19;95133.63;;;3.94;92.46
23363;BME280;11853;48.080;11.960;2023-12-07T05:56:47;95127.03;;;3.89;92.38
23363;BME280;11853;48.080;11.960;2023-12-07T05:59:13;95126.53;;;3.83;91.81
23363;BME280;11853;48.080;11.960;2023-12-07T06:01:39;95136.16;;;3.83;91.80
23363;BME280;11853;48.080;11.960;2023-12-07T06:04:08;95134.06;;;3.75;91.59
23363;BME280;11853;48.080;11.960;2023-12-07T06:06:34;95145.41;;;3.76;91.46
23363;BME280;11853;48.080;11.960;2023-12-07T06:09:02;95146.66;;;3.70;91.93
23363;BME280;11853;48.080;11.960;2023-12-07T06:11:32;95141.50;;;3.69;92.02
23363;BME280;11853;48.080;11.960;2023-12-07T06:14:02;95133.84;;;3.66;92.86
23363;BME280;11853;48.080;11.960;2023-12-07T06:16:28;95139.28;;;3.63;92.49
23363;BME280;11853;48.080;11.960;2023-12-07T06:18:56;95132.59;;;3.58;92.04
23363;BME280;11853;48.080;11.960;2023-12-07T06:21:21;95131.75;;;3.58;92.63
23363;BME280;11853;48.080;11.960;2023-12-07T06:23:47;95133.50;;;3.57;92.66
23363;BME280;11853;48.080;11.960;2023-12-07T06:26:13;95137.19;;;3.55;93.57
23363;BME280;11853;48.080;11.960;2023-12-07T06:28:39;95129.50;;;3.52;92.95
23363;BME280;11853;48.080;11.960;2023-12-07T06:31:05;95133.84;;;3.53;92.71
23363;BME280;11853;48.080;11.960;2023-12-07T06:33:34;95136.53;;;3.51;92.37
23363;BME280;11853;48.080;11.960;2023-12-07T06:36:00;95139.28;;;3.50;91.95
23363;BME280;11853;48.080;11.960;2023-12-07T06:38:28;95133.50;;;3.45;92.45
23363;BME280;11853;48.080;11.960;2023-12-07T06:40:54;95125.00;;;3.41;91.72
23363;BME280;11853;48.080;11.960;2023-12-07T06:43:20;95132.97;;;3.39;92.33
23363;BME280;11853;48.080;11.960;2023-12-07T06:45:45;95132.34;;;3.36;92.19
23363;BME280;11853;48.080;11.960;2023-12-07T06:48:11;95142.81;;;3.36;92.26
23363;BME280;11853;48.080;11.960;2023-12-07T06:50:37;95131.72;;;3.32;91.29
23363;BME280;11853;48.080;11.960;2023-12-07T06:53:02;95143.88;;;3.33;91.75
23363;BME280;11853;48.080;11.960;2023-12-07T06:55:28;95139.56;;;3.32;91.58
23363;BME280;11853;48.080;11.960;2023-12-07T06:57:54;95147.44;;;3.32;91.11
23363;BME280;11853;48.080;11.960;2023-12-07T07:00:20;95144.81;;;3.32;91.60
23363;BME280;11853;48.080;11.960;2023-12-07T07:02:45;95144.81;;;3.32;91.48
23363;BME280;11853;48.080;11.960;2023-12-07T07:05:11;95141.44;;;3.30;91.22
23363;BME280;11853;48.080;11.960;2023-12-07T07:07:37;95147.44;;;3.32;91.09
23363;BME280;11853;48.080;11.960;2023-12-07T07:10:04;95147.44;;;3.32;90.86
23363;BME280;11853;48.080;11.960;2023-12-07T07:12:30;95142.91;;;3.34;90.77
23363;BME280;11853;48.080;11.960;2023-12-07T07:14:56;95139.47;;;3.34;90.32
23363;BME280;11853;48.080;11.960;2023-12-07T07:17:24;95148.91;;;3.36;90.13
23363;BME280;11853;48.080;11.960;2023-12-07T07:19:50;95148.28;;;3.46;90.68
23363;BME280;11853;48.080;11.960;2023-12-07T07:22:16;95149.38;;;3.56;89.94
23363;BME280;11853;48.080;11.960;2023-12-07T07:24:42;95145.50;;;3.61;88.76
23363;BME280;11853;48.080;11.960;2023-12-07T07:27:07;95154.09;;;3.76;88.52
23363;BME280;11853;48.080;11.960;2023-12-07T07:29:33;95146.75;;;4.07;87.25
23363;BME280;11853;48.080;11.960;2023-12-07T07:31:58;95153.13;;;4.41;86.22
23363;BME280;11853;48.080;11.960;2023-12-07T07:34:24;95138.66;;;4.72;84.69
23363;BME280;11853;48.080;11.960;2023-12-07T07:36:50;95142.19;;;5.08;82.29
23363;BME280;11853;48.080;11.960;2023-12-07T07:39:16;95144.03;;;5.54;81.15
23363;BME280;11853;48.080;11.960;2023-12-07T07:41:42;95153.91;;;6.21;78.55
23363;BME280;11853;48.080;11.960;2023-12-07T07:44:07;95145.31;;;7.08;75.56
23363;BME280;11853;48.080;11.960;2023-12-07T07:46:33;95139.38;;;8.01;72.78
23363;BME280;11853;48.080;11.960;2023-12-07T07:49:01;95144.94;;;8.90;69.28
23363;BME280;11853;48.080;11.960;2023-12-07T07:51:29;95132.78;;;9.66;66.91
23363;BME280;11853;48.080;11.960;2023-12-07T07:53:55;95144.97;;;10.45;63.67
23363;BME280;11853;48.080;11.960;2023-12-07T07:56:22;95154.53;;;11.21;61.56
23363;BME280;11853;48.080;11.960;2023-12-07T07:58:47;95151.56;;;11.87;59.37
23363;BME280;11853;48.080;11.960;2023-12-07T08:01:13;95146.06;;;12.51;57.63
23363;BME280;11853;48.080;11.960;2023-12-07T08:03:39;95154.97;;;13.10;56.51
23363;BME280;11853;48.080;11.960;2023-12-07T08:06:06;95151.84;;;13.65;54.62
23363;BME280;11853;48.080;11.960;2023-12-07T08:08:32;95149.72;;;14.18;53.53
23363;BME280;11853;48.080;11.960;2023-12-07T08:10:58;95156.38;;;14.71;51.91
23363;BME280;11853;48.080;11.960;2023-12-07T08:13:23;95152.50;;;15.21;50.82
23363;BME280;11853;48.080;11.960;2023-12-07T08:15:52;95154.47;;;15.67;49.70
23363;BME280;11853;48.080;11.960;2023-12-07T08:18:18;95152.97;;;16.18;48.27
23363;BME280;11853;48.080;11.960;2023-12-07T08:20:44;95150.31;;;16.71;47.34
23363;BME280;11853;48.080;11.960;2023-12-07T08:23:09;95143.41;;;17.21;46.22
23363;BME280;11853;48.080;11.960;2023-12-07T08:25:38;95142.13;;;17.68;45.16
23363;BME280;11853;48.080;11.960;2023-12-07T08:28:04;95139.50;;;18.11;44.05
23363;BME280;11853;48.080;11.960;2023-12-07T08:30:30;95141.97;;;18.56;43.42
23363;BME280;11853;48.080;11.960;2023-12-07T08:32:56;95136.72;;;18.97;42.68
23363;BME280;11853;48.080;11.960;2023-12-07T08:35:22;95136.72;;;19.39;41.59
23363;BME280;11853;48.080;11.960;2023-12-07T08:37:48;95146.84;;;19.78;41.29
23363;BME280;11853;48.080;11.960;2023-12-07T08:40:14;95144.66;;;20.15;40.46
23363;BME280;11853;48.080;11.960;2023-12-07T08:42:46;95146.56;;;20.47;39.69
23363;BME280;11853;48.080;11.960;2023-12-07T08:45:12;95145.97;;;20.79;38.97
23363;BME280;11853;48.080;11.960;2023-12-07T08:47:42;95139.66;;;21.11;38.46
23363;BME280;11853;48.080;11.960;2023-12-07T08:50:08;95140.06;;;21.42;38.12
23363;BME280;11853;48.080;11.960;2023-12-07T08:52:35;95136.22;;;21.69;37.13
23363;BME280;11853;48.080;11.960;2023-12-07T08:55:00;95136.50;;;21.93;36.34
23363;BME280;11853;48.080;11.960;2023-12-07T08:57:26;95136.38;;;22.19;35.98
23363;BME280;11853;48.080;11.960;2023-12-07T08:59:52;95138.44;;;22.49;35.64
23363;BME280;11853;48.080;11.960;2023-12-07T09:02:20;95132.66;;;22.70;35.21
23363;BME280;11853;48.080;11.960;2023-12-07T09:04:46;95141.44;;;22.91;34.83
23363;BME280;11853;48.080;11.960;2023-12-07T09:07:11;95140.91;;;23.07;34.00
23363;BME280;11853;48.080;11.960;2023-12-07T09:09:41;95135.66;;;23.31;33.95
23363;BME280;11853;48.080;11.960;2023-12-07T09:12:13;95132.19;;;23.42;33.32
23363;BME280;11853;48.080;11.960;2023-12-07T09:14:39;95122.94;;;23.68;33.01
23363;BME280;11853;48.080;11.960;2023-12-07T09:17:05;95128.13;;;23.88;33.17
23363;BME280;11853;48.080;11.960;2023-12-07T09:19:36;95127.66;;;24.10;32.41
23363;BME280;11853;48.080;11.960;2023-12-07T09:22:01;95136.88;;;24.32;32.05
23363;BME280;11853;48.080;11.960;2023-12-07T09:24:27;95142.78;;;24.59;32.30
23363;BME280;11853;48.080;11.960;2023-12-07T09:26:53;95131.34;;;24.81;31.89
23363;BME280;11853;48.080;11.960;2023-12-07T09:29:18;95130.66;;;24.97;31.24
23363;BME280;11853;48.080;11.960;2023-12-07T09:31:44;95132.69;;;25.13;30.88
23363;BME280;11853;48.080;11.960;2023-12-07T09:34:10;95138.75;;;25.27;30.30
23363;BME280;11853;48.080;11.960;2023-12-07T09:36:36;95130.09;;;25.42;30.27
23363;BME280;11853;48.080;11.960;2023-12-07T09:39:02;95137.75;;;25.57;29.99
23363;BME280;11853;48.080;11.960;2023-12-07T09:41:29;95130.63;;;25.68;29.85
23363;BME280;11853;48.080;11.960;2023-12-07T09:43:54;95139.25;;;25.76;29.22
23363;BME280;11853;48.080;11.960;2023-12-07T09:46:20;95132.25;;;25.80;28.94
23363;BME280;11853;48.080;11.960;2023-12-07T09:48:48;95123.41;;;25.85;28.33
23363;BME280;11853;48.080;11.960;2023-12-07T09:51:15;95131.69;;;25.90;28.58
23363;BME280;11853;48.080;11.960;2023-12-07T09:53:42;95124.94;;;25.93;28.01
23363;BME280;11853;48.080;11.960;2023-12-07T09:56:09;95124.53;;;26.01;28.22
23363;BME280;11853;48.080;11.960;2023-12-07T09:58:35;95121.31;;;26.04;28.10
23363;BME280;11853;48.080;11.960;2023-12-07T10:01:00;95122.00;;;26.11;28.05
23363;BME280;11853;48.080;11.960;2023-12-07T10:03:26;95128.03;;;26.13;27.73
23363;BME280;11853;48.080;11.960;2023-12-07T10:05:59;95129.78;;;26.19;27.66
23363;BME280;11853;48.080;11.960;2023-12-07T10:11:03;95119.19;;;26.06;27.10
23363;BME280;11853;48.080;11.960;2023-12-07T10:13:31;95106.22;;;25.96;27.21
23363;BME280;11853;48.080;11.960;2023-12-07T10:18:34;95100.69;;;25.79;27.40
23363;BME280;11853;48.080;11.960;2023-12-07T10:21:00;95102.28;;;25.63;27.44
23363;BME280;11853;48.080;11.960;2023-12-07T10:23:26;95096.03;;;25.51;27.33
23363;BME280;11853;48.080;11.960;2023-12-07T10:25:52;95104.72;;;25.36;27.39
23363;BME280;11853;48.080;11.960;2023-12-07T10:28:18;95106.97;;;25.16;27.35
23363;BME280;11853;48.080;11.960;2023-12-07T10:30:45;95107.06;;;24.98;27.16
23363;BME280;11853;48.080;11.960;2023-12-07T10:33:11;95101.97;;;24.78;27.69
23363;BME280;11853;48.080;11.960;2023-12-07T10:35:44;95099.72;;;24.63;28.20
23363;BME280;11853;48.080;11.960;2023-12-07T10:38:10;95096.47;;;24.42;28.49
23363;BME280;11853;48.080;11.960;2023-12-07T10:40:36;95103.84;;;24.23;28.69
23363;BME280;11853;48.080;11.960;2023-12-07T10:43:04;95096.59;;;24.05;28.83
23363;BME280;11853;48.080;11.960;2023-12-07T10:45:31;95093.81;;;23.82;29.24
23363;BME280;11853;48.080;11.960;2023-12-07T10:48:08;95086.53;;;23.64;29.98
23363;BME280;11853;48.080;11.960;2023-12-07T10:50:42;95092.66;;;23.41;30.07
23363;BME280;11853;48.080;11.960;2023-12-07T10:53:12;95092.41;;;23.24;29.83
23363;BME280;11853;48.080;11.960;2023-12-07T10:55:46;95092.25;;;23.01;29.53
23363;BME280;11853;48.080;11.960;2023-12-07T10:58:14;95088.66;;;22.82;30.34
23363;BME280;11853;48.080;11.960;2023-12-07T11:00:45;95085.03;;;22.69;30.64
23363;BME280;11853;48.080;11.960;2023-12-07T11:03:16;95076.41;;;22.54;31.10
23363;BME280;11853;48.080;11.960;2023-12-07T11:05:47;95072.16;;;22.40;31.27
23363;BME280;11853;48.080;11.960;2023-12-07T11:10:47;95076.38;;;22.04;31.73
23363;BME280;11853;48.080;11.960;2023-12-07T11:13:25;95067.72;;;21.89;31.96
23363;BME280;11853;48.080;11.960;2023-12-07T11:15:52;95069.50;;;21.70;32.00
23363;BME280;11853;48.080;11.960;2023-12-07T11:18:18;95063.59;;;21.48;31.60
23363;BME280;11853;48.080;11.960;2023-12-07T11:20:45;95069.69;;;21.23;32.29
23363;BME280;11853;48.080;11.960;2023-12-07T11:23:16;95058.38;;;20.95;32.19
23363;BME280;11853;48.080;11.960;2023-12-07T11:25:46;95061.53;;;20.65;32.60
23363;BME280;11853;48.080;11.960;2023-12-07T11:28:12;95056.34;;;20.37;32.38
23363;BME280;11853;48.080;11.960;2023-12-07T11:30:42;95060.91;;;20.10;32.29
23363;BME280;11853;48.080;11.960;2023-12-07T11:33:08;95055.91;;;19.80;32.56
23363;BME280;11853;48.080;11.960;2023-12-07T11:36:10;95056.84;;;19.52;33.32
23363;BME280;11853;48.080;11.960;2023-12-07T11:38:39;95049.53;;;19.26;34.47
23363;BME280;11853;48.080;11.960;2023-12-07T11:41:24;95036.59;;;19.02;34.91
23363;BME280;11853;48.080;11.960;2023-12-07T11:43:50;95043.94;;;18.80;35.01
23363;BME280;11853;48.080;11.960;2023-12-07T11:46:19;95044.81;;;18.59;35.24
23363;BME280;11853;48.080;11.960;2023-12-07T11:48:46;95044.91;;;18.37;35.06
23363;BME280;11853;48.080;11.960;2023-12-07T11:51:13;95047.38;;;18.11;34.17
23363;BME280;11853;48.080;11.960;2023-12-07T11:53:38;95038.91;;;17.86;34.93
23363;BME280;11853;48.080;11.960;2023-12-07T11:56:06;95038.22;;;17.62;34.99
23363;BME280;11853;48.080;11.960;2023-12-07T11:58:33;95035.09;;;17.37;35.21
23363;BME280;11853;48.080;11.960;2023-12-07T12:01:00;95032.19;;;17.17;36.41
23363;BME280;11853;48.080;11.960;2023-12-07T12:03:27;95028.25;;;16.98;36.04
23363;BME280;11853;48.080;11.960;2023-12-07T12:05:53;95025.50;;;16.77;36.11
23363;BME280;11853;48.080;11.960;2023-12-07T12:08:20;95026.06;;;16.57;35.40
23363;BME280;11853;48.080;11.960;2023-12-07T12:10:47;95022.44;;;16.35;35.28
23363;BME280;11853;48.080;11.960;2023-12-07T12:13:14;95024.00;;;16.15;35.23
23363;BME280;11853;48.080;11.960;2023-12-07T12:15:40;95015.81;;;15.93;35.00
23363;BME280;11853;48.080;11.960;2023-12-07T12:18:06;95028.50;;;15.76;35.76
23363;BME280;11853;48.080;11.960;2023-12-07T12:20:32;95020.59;;;15.60;36.65
23363;BME280;11853;48.080;11.960;2023-12-07T12:22:59;95019.53;;;15.46;37.70
23363;BME280;11853;48.080;11.960;2023-12-07T12:25:30;95022.63;;;15.35;39.22
23363;BME280;11853;48.080;11.960;2023-12-07T12:28:02;95023.22;;;15.22;39.66
23363;BME280;11853;48.080;11.960;2023-12-07T12:30:29;95018.75;;;15.15;40.62
23363;BME280;11853;48.080;11.960;2023-12-07T12:32:56;95016.66;;;15.02;40.19
23363;BME280;11853;48.080;11.960;2023-12-07T12:35:21;95011.88;;;14.89;40.26
23363;BME280;11853;48.080;11.960;2023-12-07T12:37:49;95011.97;;;14.73;40.35
23363;BME280;11853;48.080;11.960;2023-12-07T12:40:19;95010.69;;;14.60;40.77
23363;BME280;11853;48.080;11.960;2023-12-07T12:42:49;94998.84;;;14.47;41.54
23363;BME280;11853;48.080;11.960;2023-12-07T12:45:16;95002.44;;;14.31;41.39
23363;BME280;11853;48.080;11.960;2023-12-07T12:47:44;94992.63;;;14.15;42.03
23363;BME280;11853;48.080;11.960;2023-12-07T12:50:11;95000.50;;;14.00;42.46
23363;BME280;11853;48.080;11.960;2023-12-07T12:52:37;94991.50;;;13.85;43.13
23363;BME280;11853;48.080;11.960;2023-12-07T12:55:10;94988.22;;;13.66;43.53
23363;BME280;11853;48.080;11.960;2023-12-07T12:57:37;94992.56;;;13.51;43.68
23363;BME280;11853;48.080;11.960;2023-12-07T13:00:07;94995.22;;;13.35;44.17
23363;BME280;11853;48.080;11.960;2023-12-07T13:02:34;94984.84;;;13.15;44.26
23363;BME280;11853;48.080;11.960;2023-12-07T13:04:59;94980.69;;;12.96;44.45